Seatac, Washington
Current Conditions -  °F | °C
As of 12:53 AM on Sunday 26 Oct 2014 (Local Time) from KSEA Reporting Station
Overcast Overcast  
Wind Chill: 51°   Ceiling: 20000
Heat Index: 51°   Visibility: 10mi
Dew Point: 45°   Wind: 15mph
Humidity: 80%   Direction: 200°SSW
Pressure: 29.78"   Gusts: 29mph
Location:  47.45°N, 122.308°W
Report Text: KSEA 260753Z 20013G25KT 10SM FEW022 SCT100 OVC200 11/07 A2978 RMK AO2 PK WND 21027/0731 SLP091 T01060072 401670083
Loading
Personal Weather Stations






























Interactive Weather Map
Tropical Storm Tracking
New forecast layout! Learn more

10-Day Weather Forecast

Advertisements
Track Severe Weather on mobile